createdAt,value
2022-10-19T00:14:34.576Z,13.13
2022-10-19T00:29:40.406Z,13.06
2022-10-19T00:45:05.481Z,13.00
2022-10-19T01:00:12.291Z,12.94
2022-10-19T01:15:29.522Z,13.00
2022-10-19T01:30:46.151Z,12.88
2022-10-19T01:45:55.766Z,13.25
2022-10-19T02:01:06.770Z,13.63
2022-10-19T02:16:20.072Z,13.94
2022-10-19T02:31:26.236Z,14.13
2022-10-19T02:46:37.501Z,14.25
2022-10-19T03:01:43.206Z,14.38
2022-10-19T03:16:48.738Z,14.31
2022-10-19T03:31:54.342Z,14.44
2022-10-19T03:46:59.757Z,14.50
2022-10-19T04:02:05.475Z,14.44
2022-10-19T04:17:12.055Z,14.44
2022-10-19T04:32:17.610Z,14.38
2022-10-19T04:47:23.530Z,14.31
2022-10-19T05:02:29.112Z,14.19
2022-10-19T05:17:35.370Z,14.06
2022-10-19T05:32:41.254Z,14.13
2022-10-19T05:47:46.841Z,14.13
2022-10-19T06:02:55.729Z,14.19
2022-10-19T06:18:05.834Z,14.25
2022-10-19T06:33:11.450Z,14.31
2022-10-19T06:48:17.231Z,14.31
2022-10-19T07:03:22.864Z,14.31
2022-10-19T07:18:29.277Z,14.44
2022-10-19T07:33:35.229Z,14.63
2022-10-19T07:48:40.972Z,14.63
2022-10-19T08:19:14.423Z,15.00
2022-10-19T08:34:20.091Z,15.19
2022-10-19T08:49:28.364Z,15.38
2022-10-19T09:04:38.861Z,15.50
2022-10-19T09:19:44.672Z,16.13
2022-10-19T09:34:53.161Z,16.06
2022-10-19T09:50:19.597Z,15.88
2022-10-19T10:05:34.500Z,15.94
2022-10-19T10:20:40.726Z,16.00
2022-10-19T10:35:53.884Z,16.13
2022-10-19T10:51:01.483Z,16.19
2022-10-19T11:06:09.768Z,16.50
2022-10-19T11:21:21.567Z,16.50
2022-10-19T11:36:43.969Z,16.75
2022-10-19T11:51:57.772Z,16.88
2022-10-19T12:07:16.475Z,17.00
2022-10-19T12:22:26.679Z,17.06
2022-10-19T12:37:40.446Z,17.06
2022-10-19T12:52:48.974Z,16.94
2022-10-19T13:07:55.056Z,17.06
2022-10-19T13:23:32.298Z,17.38
2022-10-19T13:38:38.653Z,17.19
2022-10-19T13:53:50.307Z,17.25
2022-10-19T14:09:32.455Z,16.75
2022-10-19T14:24:38.892Z,16.50
2022-10-19T14:39:44.830Z,16.38
2022-10-19T14:54:52.729Z,16.31
2022-10-19T15:10:01.688Z,16.25
2022-10-19T15:25:30.851Z,16.19
2022-10-19T15:40:39.198Z,15.81
2022-10-19T15:55:45.277Z,15.69
2022-10-19T16:10:51.161Z,15.56
2022-10-19T16:25:57.006Z,15.31
2022-10-19T16:41:05.384Z,14.94
2022-10-19T16:56:13.159Z,14.81
2022-10-19T17:11:20.905Z,14.63
2022-10-19T17:26:30.494Z,14.50
2022-10-19T17:41:37.467Z,14.38
2022-10-19T17:56:45.486Z,14.25
2022-10-19T18:11:51.218Z,14.31
2022-10-19T18:26:57.568Z,14.50
2022-10-19T18:42:03.495Z,14.50
2022-10-19T18:57:09.313Z,14.19
2022-10-19T19:12:16.170Z,14.00
2022-10-19T19:27:23.181Z,14.06
2022-10-19T19:42:29.498Z,14.25
2022-10-19T19:57:35.584Z,14.63
2022-10-19T20:12:42.125Z,14.81
2022-10-19T20:27:47.824Z,14.75
2022-10-19T20:42:53.276Z,14.81
2022-10-19T20:57:59.153Z,14.81
2022-10-19T21:13:04.975Z,14.75
2022-10-19T21:28:11.362Z,14.81
2022-10-19T21:43:17.656Z,14.81
2022-10-19T21:58:23.191Z,14.75
2022-10-19T22:13:28.821Z,14.75
2022-10-19T22:28:34.600Z,14.69
2022-10-19T22:43:40.339Z,14.63
2022-10-19T22:58:45.905Z,14.63
2022-10-19T23:13:51.570Z,14.69
2022-10-19T23:28:57.155Z,14.63
2022-10-19T23:44:02.895Z,14.63
2022-10-19T23:59:10.035Z,14.63
